Time;durP1;ratioP1;P1;durP2;ratioP2;P2;SDS_P1;SDS_P2;PMS_P1;PMS_P2;Temp;Humidity;BMP_temperature;BMP_pressure;BME280_temperature;BME280_humidity;BME280_pressure;Samples;Min_cycle;Max_cycle;Signal;HPM_P1;HPM_P2
2022/04/23 00:01:14;;;;;;;13.32;10.13;;;11.00;99.90;;;;;;4773267;30;20124;-67
2022/04/23 00:03:39;;;;;;;11.02;9.88;;;11.00;99.90;;;;;;4788151;29;20497;-66
2022/04/23 00:06:05;;;;;;;13.55;10.45;;;11.00;99.90;;;;;;4788651;29;20075;-66
2022/04/23 00:08:31;;;;;;;11.80;10.57;;;11.00;99.90;;;;;;4774990;30;20147;-66
2022/04/23 00:10:56;;;;;;;11.43;10.30;;;11.00;99.90;;;;;;4771586;30;20064;-67
2022/04/23 00:13:22;;;;;;;12.05;10.85;;;10.90;99.90;;;;;;4779777;29;20439;-66
2022/04/23 00:15:47;;;;;;;13.55;11.20;;;10.90;99.90;;;;;;4786114;29;20119;-66
2022/04/23 00:18:13;;;;;;;12.45;11.15;;;10.90;99.90;;;;;;4772255;30;20060;-66
2022/04/23 00:20:39;;;;;;;12.35;11.05;;;10.80;99.90;;;;;;4772128;30;20863;-65
2022/04/23 00:23:06;;;;;;;12.93;11.23;;;10.80;99.90;;;;;;4770488;30;20135;-66
2022/04/23 00:25:36;;;;;;;14.35;12.23;;;10.80;99.90;;;;;;4771060;30;20055;-66
2022/04/23 00:28:02;;;;;;;14.73;11.77;;;10.80;99.90;;;;;;4770918;30;20108;-67
2022/04/23 00:30:27;;;;;;;13.10;10.77;;;10.70;99.90;;;;;;4785081;29;20055;-65
2022/04/23 00:32:57;;;;;;;12.80;11.48;;;10.70;99.90;;;;;;4785523;29;20055;-66
2022/04/23 00:35:23;;;;;;;13.43;11.80;;;10.70;99.90;;;;;;4770336;30;20529;-66
2022/04/23 00:37:48;;;;;;;12.18;10.73;;;10.60;99.90;;;;;;4769956;30;20056;-66
2022/04/23 00:40:17;;;;;;;14.73;11.80;;;10.60;99.90;;;;;;4785820;30;20060;-65
2022/04/23 00:42:51;;;;;;;16.80;12.60;;;10.60;99.90;;;;;;4785327;29;20055;-66
2022/04/23 00:45:27;;;;;;;14.07;11.43;;;10.50;99.90;;;;;;4785557;30;20121;-66
2022/04/23 00:47:54;;;;;;;15.30;12.48;;;10.50;99.90;;;;;;4771804;30;20151;-67
2022/04/23 00:50:21;;;;;;;15.95;12.27;;;10.50;99.90;;;;;;4771697;30;20456;-66
2022/04/23 00:53:07;;;;;;;14.88;11.93;;;10.50;99.90;;;;;;4769003;30;20126;-67
2022/04/23 00:55:33;;;;;;;14.65;12.90;;;10.50;99.90;;;;;;4769553;30;20060;-66
2022/04/23 00:57:59;;;;;;;15.10;12.50;;;10.40;99.90;;;;;;4784807;29;20113;-66
2022/04/23 01:00:25;;;;;;;13.63;11.95;;;10.40;99.90;;;;;;4770058;30;20455;-66
2022/04/23 01:02:54;;;;;;;13.90;12.40;;;10.30;99.90;;;;;;4774652;29;20067;-67
2022/04/23 01:05:23;;;;;;;15.77;13.50;;;10.30;99.90;;;;;;4767480;30;20045;-66
2022/04/23 01:07:50;;;;;;;16.73;13.68;;;10.30;99.90;;;;;;4752387;30;20092;-66
2022/04/23 01:10:16;;;;;;;15.18;12.88;;;10.20;99.90;;;;;;4761244;30;20071;-66
2022/04/23 01:12:44;;;;;;;14.38;12.23;;;10.20;99.90;;;;;;4770829;30;20063;-66
2022/04/23 01:15:11;;;;;;;14.07;12.40;;;10.20;99.90;;;;;;4789000;30;20544;-66
2022/04/23 01:17:37;;;;;;;17.25;12.68;;;10.10;99.90;;;;;;4787206;30;20055;-66
2022/04/23 01:20:05;;;;;;;15.10;12.32;;;10.10;99.90;;;;;;4787967;30;20067;-66
2022/04/23 01:22:30;;;;;;;16.23;14.00;;;10.10;99.90;;;;;;4788963;30;20094;-67
2022/04/23 01:24:57;;;;;;;14.13;12.63;;;10.10;99.90;;;;;;4787685;30;20083;-66
2022/04/23 01:27:28;;;;;;;13.88;12.35;;;10.10;99.90;;;;;;4785389;29;20055;-66
2022/04/23 01:29:55;;;;;;;15.82;13.00;;;10.00;99.90;;;;;;4772784;30;20107;-66
2022/04/23 01:32:21;;;;;;;15.05;12.45;;;10.00;99.90;;;;;;4772135;30;20059;-65
2022/04/23 01:34:46;;;;;;;18.05;13.50;;;10.00;99.90;;;;;;4773049;30;20051;-66
2022/04/23 01:37:13;;;;;;;15.35;12.68;;;10.00;99.90;;;;;;4788586;30;20057;-67
2022/04/23 01:39:39;;;;;;;14.65;13.15;;;10.00;99.90;;;;;;4788013;30;20059;-66
2022/04/23 01:42:05;;;;;;;17.40;12.95;;;10.00;99.90;;;;;;4786093;29;20554;-65
2022/04/23 01:44:31;;;;;;;16.67;13.20;;;10.00;99.90;;;;;;4788108;29;20063;-66
2022/04/23 01:46:56;;;;;;;14.77;13.07;;;10.00;99.90;;;;;;4785928;29;20047;-66
2022/04/23 01:49:22;;;;;;;14.20;12.75;;;9.90;99.90;;;;;;4786348;30;20124;-66
2022/04/23 01:51:47;;;;;;;15.75;13.35;;;9.90;99.90;;;;;;4788772;30;20134;-66
2022/04/23 01:54:13;;;;;;;14.73;12.45;;;9.90;99.90;;;;;;4787393;30;20074;-65
2022/04/23 01:56:39;;;;;;;13.68;12.27;;;9.90;99.90;;;;;;4788187;30;20447;-66
2022/04/23 01:59:04;;;;;;;14.13;12.27;;;9.90;99.90;;;;;;4786017;29;20089;-65
2022/04/23 02:01:30;;;;;;;13.70;12.07;;;9.90;99.90;;;;;;4770181;29;20067;-66
2022/04/23 02:03:55;;;;;;;15.48;12.68;;;9.90;99.90;;;;;;4786182;29;20055;-66
2022/04/23 02:06:21;;;;;;;12.80;11.48;;;9.80;99.90;;;;;;4787122;30;20120;-65
2022/04/23 02:08:46;;;;;;;13.88;11.95;;;9.90;99.90;;;;;;4787495;29;20055;-65
2022/04/23 02:11:12;;;;;;;14.20;11.82;;;9.90;99.90;;;;;;4771924;30;20059;-65
2022/04/23 02:13:37;;;;;;;18.85;12.40;;;9.90;99.90;;;;;;4771908;30;20062;-66
2022/04/23 02:16:04;;;;;;;12.95;11.65;;;9.80;99.90;;;;;;4787473;29;20059;-66
2022/04/23 02:18:30;;;;;;;13.05;11.35;;;9.80;99.90;;;;;;4787198;29;20051;-66
2022/04/23 02:20:57;;;;;;;12.05;10.63;;;9.80;99.90;;;;;;4788156;30;20528;-66
2022/04/23 02:23:23;;;;;;;12.68;10.35;;;9.80;99.90;;;;;;4786627;30;20497;-66
2022/04/23 02:25:48;;;;;;;13.73;10.88;;;9.80;99.90;;;;;;4786315;29;20058;-66
2022/04/23 02:28:14;;;;;;;12.43;11.02;;;9.80;99.90;;;;;;4786223;29;20058;-65
2022/04/23 02:30:39;;;;;;;14.27;11.00;;;9.80;99.90;;;;;;4787232;29;20425;-65
2022/04/23 02:33:05;;;;;;;14.07;11.27;;;9.70;99.90;;;;;;4787476;29;20134;-66
2022/04/23 02:35:34;;;;;;;12.18;10.27;;;9.70;99.90;;;;;;4786580;30;20066;-66
2022/04/23 02:38:01;;;;;;;12.60;10.55;;;9.70;99.90;;;;;;4786880;29;20501;-66
2022/04/23 02:40:28;;;;;;;14.52;10.80;;;9.70;99.90;;;;;;4786054;29;20063;-66
2022/04/23 02:42:54;;;;;;;13.23;10.82;;;9.70;99.90;;;;;;4786569;29;20489;-66
2022/04/23 02:45:20;;;;;;;13.85;10.52;;;9.70;99.90;;;;;;4786699;30;20150;-65
2022/04/23 02:47:50;;;;;;;11.73;10.52;;;9.70;99.90;;;;;;4786205;29;20071;-66
2022/04/23 02:50:27;;;;;;;13.07;11.02;;;9.70;99.90;;;;;;4786559;30;20512;-66
2022/04/23 02:52:55;;;;;;;18.23;11.43;;;9.60;99.90;;;;;;4787711;30;20059;-65
2022/04/23 02:55:21;;;;;;;12.20;10.90;;;9.60;99.90;;;;;;4786365;29;20055;-66
2022/04/23 02:57:46;;;;;;;12.73;10.80;;;9.60;99.90;;;;;;4785561;29;20455;-66
2022/04/23 03:00:12;;;;;;;13.95;11.10;;;9.60;99.90;;;;;;4771663;30;20059;-66
2022/04/23 03:02:39;;;;;;;13.57;10.93;;;9.50;99.90;;;;;;4787020;29;20059;-67
2022/04/23 03:05:08;;;;;;;12.82;11.40;;;9.50;99.90;;;;;;4787259;30;20128;-66
2022/04/23 03:07:35;;;;;;;14.80;11.27;;;9.50;99.90;;;;;;4769996;29;20090;-66
2022/04/23 03:10:04;;;;;;;13.48;11.93;;;9.50;99.90;;;;;;4786636;29;20067;-65
2022/04/23 03:12:30;;;;;;;14.25;10.98;;;9.40;99.90;;;;;;4787498;29;20167;-66
2022/04/23 03:14:56;;;;;;;13.90;10.63;;;9.40;99.90;;;;;;4771475;29;20071;-66
2022/04/23 03:17:22;;;;;;;14.95;11.88;;;9.30;99.90;;;;;;4770930;29;20075;-66
2022/04/23 03:19:48;;;;;;;12.88;11.57;;;9.30;99.90;;;;;;4770773;30;20148;-66
2022/04/23 03:22:16;;;;;;;14.18;12.27;;;9.30;99.90;;;;;;4787098;30;20412;-66
2022/04/23 03:24:44;;;;;;;13.45;11.73;;;9.30;99.90;;;;;;4787477;30;20055;-66
2022/04/23 03:27:10;;;;;;;14.00;11.52;;;9.20;99.90;;;;;;4786131;30;20059;-67
2022/04/23 03:29:36;;;;;;;13.43;11.10;;;9.20;99.90;;;;;;4784797;29;20402;-65
2022/04/23 03:32:02;;;;;;;12.45;11.15;;;9.20;99.90;;;;;;4786543;29;20056;-66
2022/04/23 03:34:27;;;;;;;14.55;11.68;;;9.10;99.90;;;;;;4771243;30;20323;-67
2022/04/23 03:36:56;;;;;;;18.05;11.60;;;9.10;99.90;;;;;;4785763;29;20055;-66
2022/04/23 03:39:21;;;;;;;14.70;11.95;;;9.10;99.90;;;;;;4784952;29;20074;-66
2022/04/23 03:41:47;;;;;;;15.60;11.02;;;9.10;99.90;;;;;;4771040;30;20081;-66
2022/04/23 03:44:12;;;;;;;15.30;11.20;;;9.10;99.90;;;;;;4770938;29;20066;-66
2022/04/23 03:46:38;;;;;;;13.80;11.30;;;9.10;99.90;;;;;;4785414;30;20175;-66
2022/04/23 03:49:03;;;;;;;13.07;11.63;;;9.10;99.90;;;;;;4786290;29;20531;-66
2022/04/23 03:51:29;;;;;;;13.38;11.82;;;9.10;99.90;;;;;;4786536;29;20141;-66
2022/04/23 03:53:55;;;;;;;13.80;10.70;;;9.10;99.90;;;;;;4790236;30;20138;-67
2022/04/23 03:56:20;;;;;;;12.23;10.95;;;9.00;99.90;;;;;;4790387;30;20059;-66
2022/04/23 03:58:46;;;;;;;14.75;11.73;;;9.00;99.90;;;;;;4773335;30;20601;-66
2022/04/23 04:01:11;;;;;;;14.32;11.70;;;9.00;99.90;;;;;;4773616;30;20123;-66
2022/04/23 04:03:37;;;;;;;15.93;11.25;;;9.00;99.90;;;;;;4789357;30;20082;-66
2022/04/23 04:06:03;;;;;;;12.85;11.00;;;9.00;99.90;;;;;;4773456;29;20123;-66
2022/04/23 04:08:28;;;;;;;14.52;12.02;;;8.90;99.90;;;;;;4789218;29;20077;-66
2022/04/23 04:10:54;;;;;;;14.88;11.48;;;8.90;99.90;;;;;;4789325;29;20105;-66
2022/04/23 04:13:20;;;;;;;14.52;12.10;;;8.90;99.90;;;;;;4789023;30;20212;-65
2022/04/23 04:15:47;;;;;;;12.80;11.27;;;8.90;99.90;;;;;;4788077;29;20066;-66
2022/04/23 04:18:13;;;;;;;17.92;11.50;;;8.90;99.90;;;;;;4789525;29;20055;-66
2022/04/23 04:20:40;;;;;;;12.30;10.82;;;8.90;99.90;;;;;;4773873;30;20055;-66
2022/04/23 04:23:08;;;;;;;14.50;11.75;;;8.90;99.90;;;;;;4773828;29;20055;-66
2022/04/23 04:25:35;;;;;;;11.93;10.57;;;8.80;99.90;;;;;;4773579;30;20053;-67
2022/04/23 04:28:01;;;;;;;12.55;10.60;;;8.80;99.90;;;;;;4772990;29;20069;-66
2022/04/23 04:30:27;;;;;;;12.55;10.88;;;8.80;99.90;;;;;;4787088;29;20051;-66
2022/04/23 04:32:52;;;;;;;12.85;10.77;;;8.80;99.90;;;;;;4774042;30;20080;-65
2022/04/23 04:35:18;;;;;;;13.30;10.35;;;8.80;99.90;;;;;;4789807;30;20054;-66
2022/04/23 04:37:44;;;;;;;12.07;10.60;;;8.80;99.90;;;;;;4788729;29;20050;-66
2022/04/23 04:40:11;;;;;;;13.07;11.45;;;8.80;99.90;;;;;;4790014;29;20108;-66
2022/04/23 04:42:37;;;;;;;12.93;10.82;;;8.80;99.90;;;;;;4789689;29;20405;-65
2022/04/23 04:45:03;;;;;;;11.68;10.48;;;8.80;99.90;;;;;;4788667;29;20059;-66
2022/04/23 04:47:29;;;;;;;12.70;10.82;;;8.80;99.90;;;;;;4788177;29;20067;-66
2022/04/23 04:49:55;;;;;;;12.38;11.02;;;8.80;99.90;;;;;;4788916;29;20063;-66
2022/04/23 04:52:20;;;;;;;12.27;10.98;;;8.80;99.90;;;;;;4789462;29;20095;-66
2022/04/23 04:54:46;;;;;;;12.40;10.13;;;8.80;99.90;;;;;;4788234;29;20062;-66
2022/04/23 04:57:12;;;;;;;12.43;10.82;;;8.80;99.90;;;;;;4787853;29;20498;-66
2022/04/23 04:59:37;;;;;;;11.93;10.73;;;8.80;99.90;;;;;;4772252;30;20051;-67
2022/04/23 05:02:03;;;;;;;11.95;10.18;;;8.80;99.90;;;;;;4772204;30;20154;-66
2022/04/23 05:04:29;;;;;;;13.30;11.07;;;8.80;99.90;;;;;;4772987;30;20059;-66
2022/04/23 05:06:55;;;;;;;12.82;10.80;;;8.80;99.90;;;;;;4788101;29;20101;-66
2022/04/23 05:09:21;;;;;;;12.73;10.55;;;8.80;99.90;;;;;;4785665;29;20063;-66
2022/04/23 05:11:46;;;;;;;12.27;10.20;;;8.90;99.90;;;;;;4788810;30;20051;-66
2022/04/23 05:14:12;;;;;;;11.45;10.13;;;8.90;99.90;;;;;;4787522;29;20058;-66
2022/04/23 05:16:38;;;;;;;11.73;10.63;;;8.90;99.90;;;;;;4787748;30;20116;-66
2022/04/23 05:19:03;;;;;;;13.38;10.70;;;9.00;99.90;;;;;;4787894;30;20421;-66
2022/04/23 05:21:29;;;;;;;13.32;10.32;;;9.00;99.90;;;;;;4787001;29;20051;-65
2022/04/23 05:23:55;;;;;;;11.70;10.50;;;9.00;99.90;;;;;;4786782;29;20112;-66
2022/04/23 05:26:20;;;;;;;11.18;10.05;;;9.10;99.90;;;;;;4786075;29;20059;-64
2022/04/23 05:28:46;;;;;;;11.32;10.13;;;9.10;99.90;;;;;;4788266;30;20051;-65
2022/04/23 05:31:11;;;;;;;12.10;10.38;;;9.20;99.90;;;;;;4786824;30;20055;-65
2022/04/23 05:33:38;;;;;;;11.23;10.18;;;9.30;99.90;;;;;;4788692;29;20059;-66
2022/04/23 05:36:06;;;;;;;11.02;9.77;;;9.40;99.90;;;;;;4771074;30;20063;-66
2022/04/23 05:38:32;;;;;;;12.35;10.43;;;9.50;99.90;;;;;;4788126;29;20047;-66
2022/04/23 05:40:57;;;;;;;11.25;10.13;;;9.60;99.90;;;;;;4787884;29;20047;-67
2022/04/23 05:43:23;;;;;;;11.50;10.30;;;9.70;99.90;;;;;;4784726;29;20055;-66
2022/04/23 05:49:30;;;;;;;11.43;10.23;;;9.90;99.90;;;;;;4782935;29;20486;-66
2022/04/23 05:51:55;;;;;;;12.30;10.57;;;10.70;99.90;;;;;;4765518;29;20061;-65
2022/04/23 05:54:21;;;;;;;11.73;9.88;;;11.30;99.90;;;;;;4770535;29;20059;-67
2022/04/23 05:56:47;;;;;;;12.13;10.80;;;11.70;99.90;;;;;;4781965;29;20051;-66
2022/04/23 05:59:12;;;;;;;11.65;10.45;;;12.00;99.90;;;;;;4765481;29;20136;-66
2022/04/23 06:01:38;;;;;;;12.60;10.18;;;12.10;99.90;;;;;;4784032;30;20055;-67
2022/04/23 06:04:04;;;;;;;11.90;10.80;;;12.20;99.90;;;;;;4782644;30;20063;-67
2022/04/23 06:06:30;;;;;;;12.25;10.60;;;11.80;99.90;;;;;;4780862;29;20063;-67
2022/04/23 06:08:57;;;;;;;12.18;10.88;;;11.30;99.90;;;;;;4784473;29;20505;-67
2022/04/23 06:11:22;;;;;;;12.15;10.85;;;11.10;99.90;;;;;;4784686;29;20059;-67
2022/04/23 06:13:48;;;;;;;12.10;9.73;;;10.80;99.90;;;;;;4769734;30;20473;-68
2022/04/23 06:16:14;;;;;;;12.27;10.98;;;10.70;99.90;;;;;;4769555;30;20057;-67
2022/04/23 06:18:39;;;;;;;13.55;11.13;;;10.60;99.90;;;;;;4783844;29;20043;-66
2022/04/23 06:21:05;;;;;;;14.52;11.05;;;10.50;99.90;;;;;;4758366;29;20061;-67
2022/04/23 06:23:31;;;;;;;11.68;10.48;;;10.50;99.90;;;;;;4785801;29;20055;-67
2022/04/23 06:25:56;;;;;;;12.90;10.73;;;10.50;99.90;;;;;;4782593;29;20055;-67
2022/04/23 06:28:22;;;;;;;16.38;11.10;;;10.50;99.90;;;;;;4771715;30;20196;-67
2022/04/23 06:30:47;;;;;;;11.38;10.18;;;10.60;99.90;;;;;;4786996;29;20158;-66
2022/04/23 06:33:14;;;;;;;12.10;10.75;;;10.70;99.90;;;;;;4785304;29;20072;-65
2022/04/23 06:35:40;;;;;;;13.18;10.32;;;10.70;99.90;;;;;;4786324;29;20055;-65
2022/04/23 06:38:06;;;;;;;13.95;10.45;;;10.80;99.90;;;;;;4772165;30;20063;-65
2022/04/23 06:40:31;;;;;;;12.15;10.95;;;10.80;99.90;;;;;;4771628;30;20497;-66
2022/04/23 06:42:57;;;;;;;13.05;11.55;;;10.90;99.90;;;;;;4786897;29;20339;-66
2022/04/23 06:45:22;;;;;;;13.27;11.05;;;11.00;99.90;;;;;;4770079;29;20059;-65
2022/04/23 06:47:56;;;;;;;12.23;10.95;;;11.00;99.90;;;;;;4770081;30;20051;-65
2022/04/23 06:50:22;;;;;;;12.13;10.93;;;11.10;99.90;;;;;;4785467;29;20200;-65
2022/04/23 06:52:47;;;;;;;11.82;10.63;;;11.20;99.90;;;;;;4767796;29;20549;-65
2022/04/23 06:55:13;;;;;;;12.75;11.40;;;11.30;99.90;;;;;;4782582;29;20111;-65
2022/04/23 06:57:44;;;;;;;12.80;10.48;;;11.30;99.90;;;;;;4785005;29;20134;-65
2022/04/23 07:00:11;;;;;;;12.80;11.35;;;11.40;99.90;;;;;;4763068;30;20063;-65
2022/04/23 07:02:37;;;;;;;12.32;10.95;;;11.40;99.90;;;;;;4753354;30;20500;-65
2022/04/23 07:05:02;;;;;;;12.18;10.93;;;11.50;99.90;;;;;;4754042;30;20098;-65
2022/04/23 07:07:28;;;;;;;12.63;11.10;;;11.60;99.90;;;;;;4784880;29;20058;-66
2022/04/23 07:09:53;;;;;;;13.25;10.75;;;11.60;99.90;;;;;;4785134;29;20055;-65
2022/04/23 07:12:19;;;;;;;12.75;11.38;;;11.70;99.90;;;;;;4771366;30;20086;-65
2022/04/23 07:14:44;;;;;;;12.25;10.95;;;11.80;99.90;;;;;;4786264;29;20083;-66
2022/04/23 07:17:10;;;;;;;12.85;11.43;;;11.90;99.90;;;;;;4771238;30;20055;-65
2022/04/23 07:19:41;;;;;;;12.55;10.90;;;12.00;99.90;;;;;;4772043;30;20059;-66
2022/04/23 07:22:07;;;;;;;12.50;10.38;;;12.10;99.90;;;;;;4771553;29;20086;-67
2022/04/23 07:24:33;;;;;;;12.98;10.90;;;12.20;99.90;;;;;;4786414;29;20058;-66
2022/04/23 07:26:59;;;;;;;14.18;11.35;;;12.70;99.90;;;;;;4773896;30;20055;-65
2022/04/23 07:29:25;;;;;;;12.68;11.27;;;12.40;99.90;;;;;;4791452;30;20069;-65
2022/04/23 07:31:51;;;;;;;12.95;11.65;;;12.50;99.90;;;;;;4774695;30;20134;-65
2022/04/23 07:39:44;;;;;;;16.42;10.50;;;12.80;99.90;;;;;;4789416;29;20504;-66
2022/04/23 07:42:10;;;;;;;14.52;10.10;;;12.90;99.90;;;;;;4789613;29;20063;-64
2022/04/23 07:44:36;;;;;;;11.60;9.68;;;13.00;99.90;;;;;;4789343;29;20067;-64
2022/04/23 07:47:04;;;;;;;14.20;10.07;;;13.00;99.90;;;;;;4774525;30;20447;-65
2022/04/23 07:49:30;;;;;;;12.98;10.55;;;13.10;99.90;;;;;;4790255;29;20087;-66
2022/04/23 07:51:56;;;;;;;10.82;9.73;;;13.20;99.90;;;;;;4789508;30;20554;-65
2022/04/23 07:54:23;;;;;;;14.70;9.88;;;13.30;99.90;;;;;;4773824;30;20047;-66
2022/04/23 07:56:48;;;;;;;12.95;10.90;;;13.40;99.90;;;;;;4790656;30;20058;-65
2022/04/23 07:59:14;;;;;;;18.45;9.93;;;13.40;99.90;;;;;;4789164;29;20467;-65
2022/04/23 08:01:40;;;;;;;13.80;9.35;;;13.50;99.90;;;;;;4774003;29;20065;-66
2022/04/23 08:04:06;;;;;;;11.98;8.75;;;13.60;99.90;;;;;;4789862;30;20059;-65
2022/04/23 08:06:33;;;;;;;10.30;8.45;;;13.50;98.40;;;;;;4773892;30;20507;-64
2022/04/23 08:09:00;;;;;;;13.38;9.85;;;13.60;95.80;;;;;;4773706;30;20055;-64
2022/04/23 08:11:26;;;;;;;10.80;7.97;;;13.70;95.80;;;;;;4773363;30;20065;-64
2022/04/23 08:13:52;;;;;;;11.15;9.48;;;13.80;94.80;;;;;;4773873;30;20546;-64
2022/04/23 08:16:18;;;;;;;10.45;9.35;;;13.90;92.50;;;;;;4773605;29;20063;-63
2022/04/23 08:18:43;;;;;;;15.48;9.27;;;14.00;91.10;;;;;;4788684;30;20069;-65
2022/04/23 08:21:09;;;;;;;10.52;9.07;;;14.10;90.60;;;;;;4788516;29;20055;-63
2022/04/23 08:23:34;;;;;;;14.27;9.35;;;14.10;85.90;;;;;;4788801;29;20059;-63
2022/04/23 08:26:02;;;;;;;11.27;9.30;;;14.10;83.40;;;;;;4790538;29;20059;-63
2022/04/23 08:31:12;;;;;;;9.55;8.55;;;14.10;80.20;;;;;;4770764;30;20055;-65
2022/04/23 08:36:22;;;;;;;17.58;9.68;;;14.40;81.10;;;;;;4787880;29;20497;-67
2022/04/23 08:38:48;;;;;;;11.07;9.85;;;14.40;82.40;;;;;;4788864;30;20051;-66
2022/04/23 08:41:14;;;;;;;13.82;9.32;;;14.40;80.90;;;;;;4773304;30;20448;-65
2022/04/23 08:43:42;;;;;;;13.15;9.57;;;14.60;81.10;;;;;;4773906;30;20158;-65
2022/04/23 08:46:09;;;;;;;11.90;9.30;;;14.70;79.10;;;;;;4788973;30;20061;-66
2022/04/23 08:48:38;;;;;;;11.52;9.40;;;14.90;79.60;;;;;;4773059;30;20085;-66
2022/04/23 08:51:05;;;;;;;12.75;9.80;;;15.00;75.20;;;;;;4773258;30;20051;-64
2022/04/23 08:53:33;;;;;;;12.95;9.90;;;14.90;72.60;;;;;;4774231;30;20489;-66
2022/04/23 08:56:00;;;;;;;10.23;9.27;;;14.80;70.90;;;;;;4773931;30;20408;-65
2022/04/23 08:58:25;;;;;;;11.13;9.50;;;14.80;71.60;;;;;;4788591;29;20062;-65
2022/04/23 09:00:51;;;;;;;11.18;9.25;;;14.80;71.30;;;;;;4788911;30;20421;-66
2022/04/23 09:03:17;;;;;;;11.82;10.10;;;14.90;72.00;;;;;;4788269;30;20062;-64
2022/04/23 09:05:43;;;;;;;13.93;10.50;;;15.10;72.20;;;;;;4788615;29;20143;-64
2022/04/23 09:08:10;;;;;;;11.13;9.93;;;15.20;70.40;;;;;;4788119;29;20157;-64
2022/04/23 09:10:46;;;;;;;11.07;9.98;;;15.10;68.90;;;;;;4787706;30;20070;-65
2022/04/23 09:13:31;;;;;;;11.65;10.32;;;15.10;67.50;;;;;;4789209;30;20059;-64
2022/04/23 09:24:17;;;;;;;11.00;9.90;;;15.10;69.30;;;;;;4783662;29;20047;-63
2022/04/23 09:26:42;;;;;;;13.65;9.90;;;15.30;69.40;;;;;;4787820;29;20055;-65
2022/04/23 09:29:20;;;;;;;14.18;9.88;;;15.40;68.50;;;;;;4788176;29;20066;-65
2022/04/23 09:31:45;;;;;;;10.95;9.75;;;15.40;67.90;;;;;;4786600;29;20393;-65
2022/04/23 09:34:20;;;;;;;11.20;10.05;;;15.60;68.40;;;;;;4787574;29;20057;-66
2022/04/23 09:36:47;;;;;;;11.70;10.30;;;15.70;67.10;;;;;;4772885;29;20127;-65
2022/04/23 09:39:12;;;;;;;12.57;11.25;;;15.70;66.70;;;;;;4786961;30;20059;-65
2022/04/23 09:41:38;;;;;;;11.32;10.32;;;15.60;66.10;;;;;;4787364;30;20540;-65
2022/04/23 09:44:09;;;;;;;11.63;10.13;;;15.60;66.10;;;;;;4771365;30;20111;-63
2022/04/23 09:46:48;;;;;;;11.98;10.80;;;15.70;65.60;;;;;;4787779;29;20433;-65
2022/04/23 09:49:23;;;;;;;15.13;10.80;;;15.60;66.10;;;;;;4787455;29;20054;-63
2022/04/23 09:52:04;;;;;;;12.43;10.57;;;15.70;66.50;;;;;;4788717;29;20070;-64
2022/04/23 09:54:34;;;;;;;14.95;12.02;;;15.80;66.20;;;;;;4787438;30;20145;-63
2022/04/23 09:57:00;;;;;;;12.50;11.13;;;15.80;65.80;;;;;;4787629;29;20493;-64
2022/04/23 09:59:26;;;;;;;17.35;10.68;;;15.80;65.50;;;;;;4787719;30;20061;-63
2022/04/23 10:01:54;;;;;;;11.90;10.80;;;15.80;65.10;;;;;;4786873;30;20066;-64
2022/04/23 10:04:23;;;;;;;13.48;10.95;;;16.00;65.30;;;;;;4786452;30;20092;-64
2022/04/23 10:06:52;;;;;;;14.52;11.10;;;15.70;64.80;;;;;;4786453;29;20112;-63
2022/04/23 10:09:26;;;;;;;12.15;10.95;;;15.70;64.10;;;;;;4771195;30;20074;-64
2022/04/23 10:12:04;;;;;;;11.93;10.82;;;15.70;64.60;;;;;;4787573;30;20516;-64
2022/04/23 10:14:35;;;;;;;11.50;10.30;;;15.80;64.50;;;;;;4788107;29;20079;-64
2022/04/23 10:17:05;;;;;;;12.00;10.30;;;15.90;63.10;;;;;;4771904;29;20138;-65
2022/04/23 10:19:32;;;;;;;14.25;10.93;;;15.90;63.90;;;;;;4787007;29;20067;-64
2022/04/23 10:22:19;;;;;;;11.15;9.73;;;16.00;63.50;;;;;;4786923;29;20059;-65
2022/04/23 10:25:01;;;;;;;13.48;11.35;;;16.20;64.10;;;;;;4771217;30;20059;-65
2022/04/23 10:27:28;;;;;;;12.15;10.98;;;16.40;63.00;;;;;;4785169;29;20063;-64
2022/04/23 10:30:02;;;;;;;13.23;10.38;;;16.50;62.60;;;;;;4786768;30;20187;-64
2022/04/23 10:32:40;;;;;;;12.23;10.40;;;16.50;62.30;;;;;;4786000;29;20055;-64
2022/04/23 10:35:17;;;;;;;11.77;10.15;;;16.40;61.60;;;;;;4768322;30;20481;-64
2022/04/23 10:37:46;;;;;;;11.48;10.35;;;16.30;60.90;;;;;;4785464;29;20055;-64
2022/04/23 10:40:12;;;;;;;11.30;9.52;;;16.40;61.20;;;;;;4787456;30;20086;-64
2022/04/23 10:42:39;;;;;;;12.25;9.80;;;16.40;60.70;;;;;;4769091;30;20089;-64
2022/04/23 10:45:07;;;;;;;12.50;10.30;;;16.50;60.60;;;;;;4787670;29;20182;-64
2022/04/23 10:47:34;;;;;;;10.82;9.73;;;16.70;60.80;;;;;;4786576;30;20533;-64
2022/04/23 10:50:16;;;;;;;12.32;9.63;;;16.90;60.70;;;;;;4784441;29;20071;-63
2022/04/23 10:52:43;;;;;;;12.88;10.32;;;17.00;59.40;;;;;;4797398;29;20063;-64
2022/04/23 10:55:10;;;;;;;11.35;10.13;;;16.90;59.30;;;;;;4787819;30;20437;-63
2022/04/23 10:57:35;;;;;;;10.60;9.60;;;16.90;58.90;;;;;;4785626;29;20421;-63
2022/04/23 11:00:21;;;;;;;13.55;10.25;;;16.90;58.60;;;;;;4783125;29;20059;-62
2022/04/23 11:02:48;;;;;;;12.13;9.98;;;16.90;57.90;;;;;;4783392;29;20061;-64
2022/04/23 11:13:56;;;;;;;9.93;8.93;;;17.20;57.60;;;;;;4786517;29;20066;-64
2022/04/23 11:16:23;;;;;;;11.80;8.63;;;17.20;57.20;;;;;;4771276;30;20080;-64
2022/04/23 11:18:50;;;;;;;11.00;9.00;;;17.30;57.50;;;;;;4770383;30;20051;-64
2022/04/23 11:21:26;;;;;;;13.13;8.82;;;17.30;56.90;;;;;;4784698;30;20051;-63
2022/04/23 11:23:56;;;;;;;8.45;7.75;;;17.40;56.50;;;;;;4785358;30;20051;-64
2022/04/23 11:26:38;;;;;;;11.20;8.85;;;17.30;56.40;;;;;;4787330;29;20051;-64
2022/04/23 11:29:04;;;;;;;12.73;9.15;;;17.20;56.40;;;;;;4786393;30;20059;-65
2022/04/23 11:31:30;;;;;;;10.98;9.18;;;17.20;56.40;;;;;;4785698;30;20077;-65
2022/04/23 11:33:58;;;;;;;10.18;9.23;;;17.20;56.40;;;;;;4770710;30;20058;-65
2022/04/23 11:36:26;;;;;;;10.73;9.63;;;17.20;56.50;;;;;;4770132;30;20158;-64
2022/04/23 11:38:52;;;;;;;10.77;9.68;;;17.30;56.40;;;;;;4786966;30;20501;-64
2022/04/23 11:41:28;;;;;;;9.38;8.48;;;17.20;56.00;;;;;;4770384;30;20074;-64
2022/04/23 11:43:54;;;;;;;10.82;8.60;;;17.20;55.20;;;;;;4771800;30;20063;-62
2022/04/23 11:46:19;;;;;;;10.10;8.18;;;17.30;56.20;;;;;;4770778;30;20134;-63
2022/04/23 11:48:47;;;;;;;9.00;8.00;;;17.40;55.40;;;;;;4771294;30;20066;-64
2022/04/23 11:51:14;;;;;;;9.48;8.57;;;17.50;55.70;;;;;;4786719;30;20047;-63
2022/04/23 11:53:59;;;;;;;10.57;8.88;;;17.50;54.60;;;;;;4787353;30;20070;-64
2022/04/23 11:56:26;;;;;;;9.65;8.65;;;17.50;54.00;;;;;;4769549;30;20084;-64
2022/04/23 11:58:53;;;;;;;11.73;9.13;;;17.40;53.70;;;;;;4787255;30;20157;-63
2022/04/23 12:01:21;;;;;;;10.35;8.73;;;17.40;54.10;;;;;;4786337;30;20039;-64
2022/04/23 12:03:51;;;;;;;10.25;8.40;;;17.40;54.40;;;;;;4786201;29;20151;-63
2022/04/23 12:06:17;;;;;;;9.10;8.10;;;17.40;53.90;;;;;;4770570;30;20051;-64
2022/04/23 12:08:43;;;;;;;9.20;8.30;;;17.40;53.90;;;;;;4787168;29;20065;-63
2022/04/23 12:11:22;;;;;;;9.30;7.70;;;17.50;53.60;;;;;;4784341;29;20109;-64
2022/04/23 12:13:48;;;;;;;10.65;7.20;;;17.50;52.10;;;;;;4774178;30;20059;-63
2022/04/23 12:16:29;;;;;;;11.32;8.15;;;17.50;52.60;;;;;;4772427;29;20108;-65
2022/04/23 12:19:07;;;;;;;9.40;7.00;;;17.60;53.40;;;;;;4790164;30;20057;-65
2022/04/23 12:21:33;;;;;;;8.10;7.40;;;17.90;53.00;;;;;;4758870;30;20059;-65
2022/04/23 12:23:59;;;;;;;7.90;7.20;;;18.00;52.00;;;;;;4771059;30;20055;-63
2022/04/23 12:26:32;;;;;;;7.47;6.78;;;18.00;51.60;;;;;;4780932;29;20084;-64
2022/04/23 12:42:30;;;;;;;7.50;6.80;;;18.00;50.70;;;;;;4771807;30;20063;-63
2022/04/23 12:44:55;;;;;;;7.93;6.97;;;18.10;50.10;;;;;;4789004;30;20071;-64
2022/04/23 12:47:34;;;;;;;7.32;6.63;;;18.10;49.70;;;;;;4788423;30;20128;-65
2022/04/23 12:50:03;;;;;;;6.72;6.10;;;18.10;49.50;;;;;;4788379;29;20071;-64
2022/04/23 12:52:32;;;;;;;15.00;7.30;;;18.20;50.40;;;;;;4789272;29;20051;-65
2022/04/23 12:55:28;;;;;;;7.65;6.50;;;18.30;49.70;;;;;;4788497;29;20100;-66
2022/04/23 12:58:08;;;;;;;7.43;6.57;;;18.30;48.60;;;;;;4788896;30;20419;-65
2022/04/23 13:00:40;;;;;;;7.60;6.35;;;18.30;49.20;;;;;;4787813;30;20519;-64
2022/04/23 13:06:02;;;;;;;7.13;6.22;;;18.30;48.10;;;;;;4789304;30;20067;-64
2022/04/23 13:11:27;;;;;;;6.10;5.53;;;18.30;48.20;;;;;;4786474;29;20505;-64
2022/04/23 13:14:01;;;;;;;7.18;5.50;;;18.40;48.00;;;;;;4766392;30;20055;-63
2022/04/23 13:16:29;;;;;;;7.15;6.25;;;18.50;48.60;;;;;;4772723;30;20071;-64
2022/04/23 13:18:56;;;;;;;6.78;5.90;;;18.50;48.00;;;;;;4788866;29;20581;-64
2022/04/23 13:21:26;;;;;;;8.35;6.38;;;18.40;48.10;;;;;;4787667;30;20059;-65
2022/04/23 13:23:53;;;;;;;10.82;6.90;;;18.50;48.20;;;;;;4772671;30;20055;-65
2022/04/23 13:26:20;;;;;;;7.25;6.55;;;18.50;48.00;;;;;;4772679;30;20112;-65